Time;durP1;ratioP1;P1;durP2;ratioP2;P2;SDS_P1;SDS_P2;PMS_P1;PMS_P2;Temp;Humidity;BMP_temperature;BMP_pressure;BME280_temperature;BME280_humidity;BME280_pressure;Samples;Min_cycle;Max_cycle;Signal;HPM_P1;HPM_P2
2023/04/22 00:00:48;;;;;;;6.30;5.63;;;9.50;99.90;;;;;;5056171;28;20599;-77
2023/04/22 00:03:14;;;;;;;6.53;5.93;;;9.50;99.90;;;;;;5039798;28;20179;-77
2023/04/22 00:05:40;;;;;;;6.28;5.78;;;9.40;99.90;;;;;;5062708;28;20718;-77
2023/04/22 00:08:07;;;;;;;5.78;5.25;;;9.40;99.90;;;;;;5049773;28;20180;-77
2023/04/22 00:10:32;;;;;;;6.32;5.68;;;9.40;99.90;;;;;;5054553;28;20220;-78
2023/04/22 00:12:58;;;;;;;7.10;6.40;;;9.50;99.90;;;;;;5060024;28;20259;-78
2023/04/22 00:15:25;;;;;;;7.45;6.03;;;9.40;99.90;;;;;;5056903;28;20208;-78
2023/04/22 00:17:54;;;;;;;6.78;6.15;;;9.40;99.90;;;;;;5058553;28;20168;-78
2023/04/22 00:20:20;;;;;;;6.75;6.15;;;9.30;99.90;;;;;;5059371;28;20196;-78
2023/04/22 00:22:46;;;;;;;6.10;5.50;;;9.30;99.90;;;;;;5035055;28;20181;-78
2023/04/22 00:25:12;;;;;;;6.28;5.68;;;9.20;99.90;;;;;;5035846;28;20291;-78
2023/04/22 00:27:37;;;;;;;7.28;5.85;;;9.20;99.90;;;;;;5043702;28;20188;-77
2023/04/22 00:30:04;;;;;;;6.32;5.68;;;9.10;99.90;;;;;;5042270;28;20184;-77
2023/04/22 00:32:30;;;;;;;6.22;5.40;;;9.10;99.90;;;;;;5054616;28;20203;-77
2023/04/22 00:34:56;;;;;;;6.07;5.50;;;9.20;99.90;;;;;;5039466;28;20211;-77
2023/04/22 00:37:25;;;;;;;6.25;5.75;;;9.30;99.90;;;;;;5037737;28;20274;-77
2023/04/22 00:39:51;;;;;;;6.30;5.70;;;9.30;99.90;;;;;;5048494;28;20639;-78
2023/04/22 00:42:16;;;;;;;6.22;5.63;;;9.30;99.90;;;;;;5049763;28;20219;-77
2023/04/22 00:44:42;;;;;;;6.18;5.68;;;9.30;99.90;;;;;;5054936;28;20187;-79
2023/04/22 00:47:08;;;;;;;7.07;6.35;;;9.30;99.90;;;;;;5049315;28;20175;-79
2023/04/22 00:49:36;;;;;;;7.13;5.95;;;9.20;99.90;;;;;;5036417;28;20181;-79
2023/04/22 00:52:02;;;;;;;6.10;5.47;;;9.10;99.90;;;;;;5038631;28;20199;-79
2023/04/22 00:54:28;;;;;;;6.57;5.97;;;9.10;99.90;;;;;;5059313;28;20690;-79
2023/04/22 00:56:56;;;;;;;6.90;6.25;;;9.00;99.90;;;;;;5048281;28;20188;-79
2023/04/22 00:59:33;;;;;;;10.23;6.18;;;8.90;99.90;;;;;;5056653;28;20192;-78
2023/04/22 01:01:59;;;;;;;6.45;5.43;;;8.80;99.90;;;;;;5057099;28;20203;-78
2023/04/22 01:04:25;;;;;;;6.75;5.85;;;8.70;99.90;;;;;;5037598;28;20172;-78
2023/04/22 01:06:53;;;;;;;6.72;5.13;;;8.70;99.90;;;;;;5058415;28;20314;-79
2023/04/22 01:09:19;;;;;;;6.15;5.57;;;8.70;99.90;;;;;;5057191;28;20167;-79
2023/04/22 01:11:46;;;;;;;6.78;5.53;;;8.60;99.90;;;;;;5048635;28;20230;-79
2023/04/22 01:14:12;;;;;;;8.52;5.97;;;8.70;99.90;;;;;;5045463;28;20184;-79
2023/04/22 01:16:38;;;;;;;5.28;4.88;;;8.60;99.90;;;;;;5065652;28;20204;-80
2023/04/22 01:19:07;;;;;;;5.80;5.28;;;8.50;99.90;;;;;;5049676;28;20281;-81
2023/04/22 01:21:34;;;;;;;5.88;5.28;;;8.50;99.90;;;;;;5031315;28;20586;-78
2023/04/22 01:24:00;;;;;;;5.20;4.80;;;8.50;99.90;;;;;;5033908;28;20188;-78
2023/04/22 01:26:27;;;;;;;6.65;4.90;;;8.50;99.90;;;;;;5051511;28;20199;-77
2023/04/22 01:28:53;;;;;;;5.53;5.03;;;8.50;99.90;;;;;;5048695;28;20267;-77
2023/04/22 01:31:19;;;;;;;5.20;4.78;;;8.60;99.90;;;;;;5048731;28;20180;-78
2023/04/22 01:33:45;;;;;;;7.43;5.47;;;8.50;99.90;;;;;;5053099;28;20192;-77
2023/04/22 01:36:11;;;;;;;6.25;5.10;;;8.50;99.90;;;;;;5047908;28;20196;-79
2023/04/22 01:38:37;;;;;;;5.00;4.60;;;8.50;99.90;;;;;;5051373;28;20188;-79
2023/04/22 01:41:03;;;;;;;7.03;5.40;;;8.50;99.90;;;;;;5045592;28;20580;-78
2023/04/22 01:43:29;;;;;;;6.72;5.40;;;8.50;99.90;;;;;;5049104;28;20183;-77
2023/04/22 01:45:56;;;;;;;5.90;5.40;;;8.60;99.90;;;;;;5054643;28;20203;-78
2023/04/22 01:48:22;;;;;;;6.53;5.93;;;8.60;99.90;;;;;;5048235;28;20184;-77
2023/04/22 01:50:47;;;;;;;5.72;5.22;;;8.60;99.90;;;;;;5040255;28;20188;-78
2023/04/22 01:53:13;;;;;;;6.13;5.53;;;8.60;99.90;;;;;;5039448;28;20188;-79
2023/04/22 01:55:40;;;;;;;7.80;5.68;;;8.60;99.90;;;;;;5048950;28;20239;-78
2023/04/22 01:58:06;;;;;;;6.13;5.55;;;8.60;99.90;;;;;;5049263;28;20223;-78
2023/04/22 02:00:31;;;;;;;6.97;5.78;;;8.50;99.90;;;;;;5042728;28;20180;-82
2023/04/22 02:02:57;;;;;;;5.88;5.20;;;8.50;99.90;;;;;;5035625;28;20183;-78
2023/04/22 02:05:23;;;;;;;5.78;5.28;;;8.40;99.90;;;;;;5046622;28;20200;-78
2023/04/22 02:07:52;;;;;;;6.32;5.75;;;8.50;99.90;;;;;;5057723;28;20192;-78
2023/04/22 02:10:18;;;;;;;6.88;6.07;;;8.50;99.90;;;;;;5053401;28;20173;-79
2023/04/22 02:12:44;;;;;;;6.38;5.75;;;8.50;99.90;;;;;;5053088;28;20188;-78
2023/04/22 02:15:10;;;;;;;6.53;5.35;;;8.40;99.90;;;;;;5055510;28;20246;-78
2023/04/22 02:17:36;;;;;;;5.82;5.32;;;8.30;99.90;;;;;;5047906;28;20186;-78
2023/04/22 02:20:03;;;;;;;6.03;5.47;;;8.20;99.90;;;;;;5031556;28;20749;-77
2023/04/22 02:22:30;;;;;;;6.47;5.88;;;8.10;99.90;;;;;;5045618;28;20211;-76
2023/04/22 02:24:55;;;;;;;5.28;4.78;;;8.00;99.90;;;;;;5052289;28;20207;-77
2023/04/22 02:27:21;;;;;;;7.95;5.20;;;8.10;99.90;;;;;;5044854;28;20193;-77
2023/04/22 02:29:47;;;;;;;5.57;5.07;;;8.10;99.90;;;;;;5047439;28;20184;-77
2023/04/22 02:32:13;;;;;;;7.55;5.97;;;8.10;99.90;;;;;;5055769;28;20191;-77
2023/04/22 02:34:39;;;;;;;5.97;5.40;;;8.20;99.90;;;;;;5045021;28;20230;-77
2023/04/22 02:37:04;;;;;;;6.82;5.68;;;8.20;99.90;;;;;;5055460;28;20273;-77
2023/04/22 02:39:30;;;;;;;5.85;5.35;;;8.10;99.90;;;;;;5049135;28;20225;-76
2023/04/22 02:41:55;;;;;;;6.38;5.75;;;8.10;99.90;;;;;;5047666;28;20211;-77
2023/04/22 02:44:21;;;;;;;5.20;4.80;;;8.10;99.90;;;;;;5048657;28;20259;-77
2023/04/22 02:46:47;;;;;;;5.93;5.38;;;8.00;99.90;;;;;;5044570;28;20216;-80
2023/04/22 02:49:12;;;;;;;6.93;6.07;;;8.00;99.90;;;;;;5046827;28;20188;-77
2023/04/22 02:51:38;;;;;;;6.30;5.80;;;7.90;99.90;;;;;;5046636;28;20179;-77
2023/04/22 02:54:04;;;;;;;6.03;5.43;;;7.80;99.90;;;;;;5047646;28;20587;-76
2023/04/22 02:56:30;;;;;;;5.90;5.40;;;7.80;99.90;;;;;;5045843;28;20206;-76
2023/04/22 02:58:56;;;;;;;6.65;5.70;;;7.80;99.90;;;;;;5029949;28;20223;-77
2023/04/22 03:01:21;;;;;;;6.28;5.65;;;7.80;99.90;;;;;;5049480;28;20204;-77
2023/04/22 03:03:47;;;;;;;6.05;5.18;;;7.80;99.90;;;;;;5043762;28;20234;-77
2023/04/22 03:06:13;;;;;;;6.70;6.10;;;7.80;99.90;;;;;;5033902;28;20282;-77
2023/04/22 03:08:38;;;;;;;6.57;5.90;;;7.80;99.90;;;;;;5040349;28;20714;-76
2023/04/22 03:11:04;;;;;;;7.45;6.05;;;7.80;99.90;;;;;;5035390;28;20723;-77
2023/04/22 03:13:30;;;;;;;6.35;5.75;;;7.70;99.90;;;;;;5033897;28;20188;-77
2023/04/22 03:15:55;;;;;;;6.30;5.80;;;7.70;99.90;;;;;;5045333;28;20231;-78
2023/04/22 03:18:21;;;;;;;7.35;6.57;;;7.50;99.90;;;;;;5048322;28;20266;-77
2023/04/22 03:20:48;;;;;;;7.03;5.80;;;7.50;99.90;;;;;;5046654;28;20269;-78
2023/04/22 03:23:13;;;;;;;5.45;4.95;;;7.50;99.90;;;;;;5060845;28;20246;-79
2023/04/22 03:25:40;;;;;;;6.15;5.55;;;7.50;99.90;;;;;;5045771;28;20660;-77
2023/04/22 03:28:05;;;;;;;6.47;5.65;;;7.50;99.90;;;;;;5045899;28;20186;-77
2023/04/22 03:30:31;;;;;;;6.53;5.93;;;7.40;99.90;;;;;;5046724;28;20176;-78
2023/04/22 03:32:57;;;;;;;6.68;5.80;;;7.40;99.90;;;;;;5045793;28;20710;-77
2023/04/22 03:35:23;;;;;;;6.68;6.07;;;7.40;99.90;;;;;;5051532;28;20208;-78
2023/04/22 03:37:48;;;;;;;8.45;5.68;;;7.30;99.90;;;;;;5038547;28;20175;-77
2023/04/22 03:40:14;;;;;;;6.43;5.85;;;7.30;99.90;;;;;;5029382;28;20409;-77
2023/04/22 03:42:39;;;;;;;6.10;5.60;;;7.30;99.90;;;;;;5042762;28;20239;-78
2023/04/22 03:45:06;;;;;;;7.07;5.57;;;7.20;99.90;;;;;;5030402;28;20231;-77
2023/04/22 03:47:31;;;;;;;5.82;5.32;;;7.20;99.90;;;;;;5031842;28;20274;-76
2023/04/22 03:49:57;;;;;;;5.85;5.35;;;7.20;99.90;;;;;;5044575;28;20663;-77
2023/04/22 03:52:22;;;;;;;7.03;6.25;;;7.10;99.90;;;;;;5047986;28;20279;-77
2023/04/22 03:54:48;;;;;;;6.97;5.97;;;7.10;99.90;;;;;;5046355;28;20211;-78
2023/04/22 03:57:14;;;;;;;6.65;5.95;;;7.10;99.90;;;;;;5041944;28;20553;-79
2023/04/22 03:59:39;;;;;;;6.60;6.00;;;7.10;99.90;;;;;;5036434;28;20188;-77
2023/04/22 04:02:06;;;;;;;6.30;5.70;;;7.10;99.90;;;;;;5038949;28;20671;-77
2023/04/22 04:04:33;;;;;;;6.07;5.45;;;7.10;99.90;;;;;;5045935;28;20588;-78
2023/04/22 04:06:59;;;;;;;7.75;6.32;;;7.10;99.90;;;;;;5046920;28;20674;-78
2023/04/22 04:09:25;;;;;;;6.75;5.90;;;7.00;99.90;;;;;;5051326;28;20181;-79
2023/04/22 04:11:50;;;;;;;7.10;6.38;;;7.00;99.90;;;;;;5052740;28;20604;-76
2023/04/22 04:14:16;;;;;;;8.43;6.70;;;7.00;99.90;;;;;;5051110;28;20278;-75
2023/04/22 04:16:41;;;;;;;10.38;7.13;;;7.10;99.90;;;;;;5051329;28;20252;-78
2023/04/22 04:19:07;;;;;;;8.60;7.65;;;7.10;99.90;;;;;;5041093;28;20175;-78
2023/04/22 04:21:33;;;;;;;12.63;7.60;;;7.20;99.90;;;;;;5056624;28;20219;-78
2023/04/22 04:23:59;;;;;;;9.00;8.10;;;7.10;99.90;;;;;;5056872;28;20195;-77
2023/04/22 04:26:26;;;;;;;10.27;7.95;;;7.10;99.90;;;;;;5049733;28;20561;-77
2023/04/22 04:28:52;;;;;;;10.73;8.88;;;7.10;99.90;;;;;;5051842;28;20175;-79
2023/04/22 04:31:18;;;;;;;10.48;8.38;;;7.00;99.90;;;;;;5041270;28;20211;-78
2023/04/22 04:33:45;;;;;;;9.25;8.20;;;7.00;99.90;;;;;;5032814;28;20699;-77
2023/04/22 04:36:11;;;;;;;10.65;7.38;;;7.10;99.90;;;;;;5051027;28;20214;-77
2023/04/22 04:38:36;;;;;;;8.98;7.50;;;7.10;99.90;;;;;;5042135;28;20278;-78
2023/04/22 04:41:03;;;;;;;8.30;7.32;;;7.10;99.90;;;;;;5060449;28;20196;-82
2023/04/22 04:43:29;;;;;;;7.93;7.13;;;7.20;99.90;;;;;;5042388;28;20199;-81
2023/04/22 04:45:54;;;;;;;8.15;7.05;;;7.20;99.90;;;;;;5065475;28;20216;-79
2023/04/22 04:48:23;;;;;;;10.07;8.10;;;7.20;99.90;;;;;;5058674;28;20180;-80
2023/04/22 04:50:52;;;;;;;7.90;6.63;;;7.20;99.90;;;;;;5058297;28;20183;-79
2023/04/22 04:53:21;;;;;;;6.93;6.32;;;7.20;99.90;;;;;;5046060;28;20195;-79
2023/04/22 04:55:47;;;;;;;7.30;6.57;;;7.30;99.90;;;;;;5057180;28;20210;-78
2023/04/22 04:58:13;;;;;;;8.75;6.63;;;7.30;99.90;;;;;;5062787;28;20175;-79
2023/04/22 05:00:38;;;;;;;7.68;6.47;;;7.30;99.90;;;;;;5049441;28;20207;-77
2023/04/22 05:03:04;;;;;;;8.93;7.30;;;7.30;99.90;;;;;;5049066;28;20187;-75
2023/04/22 05:05:29;;;;;;;7.00;6.00;;;7.30;99.90;;;;;;5053533;28;20200;-77
2023/04/22 05:07:55;;;;;;;7.55;6.82;;;7.30;99.90;;;;;;5055190;28;20184;-76
2023/04/22 05:10:20;;;;;;;7.03;6.32;;;7.40;99.90;;;;;;5035346;28;20183;-77
2023/04/22 05:12:46;;;;;;;7.20;6.50;;;7.40;99.90;;;;;;5052071;28;20198;-76
2023/04/22 05:15:13;;;;;;;11.35;6.85;;;7.50;99.90;;;;;;5049936;28;20543;-76
2023/04/22 05:17:39;;;;;;;7.07;6.47;;;7.50;99.90;;;;;;5054033;28;20179;-78
2023/04/22 05:20:05;;;;;;;8.52;6.55;;;7.60;99.90;;;;;;5050958;28;20199;-77
2023/04/22 05:22:30;;;;;;;7.38;6.60;;;7.60;99.90;;;;;;5033341;28;20205;-77
2023/04/22 05:24:56;;;;;;;7.43;6.65;;;7.70;99.90;;;;;;5052429;28;21228;-76
2023/04/22 05:27:22;;;;;;;8.60;6.43;;;7.80;99.90;;;;;;5050959;28;20555;-76
2023/04/22 05:29:47;;;;;;;6.35;5.75;;;7.80;99.90;;;;;;5050934;28;20635;-77
2023/04/22 05:32:13;;;;;;;6.63;6.13;;;7.90;99.90;;;;;;5048713;28;20186;-77
2023/04/22 05:34:39;;;;;;;8.07;6.05;;;8.00;99.90;;;;;;5051404;28;20192;-80
2023/04/22 05:37:05;;;;;;;6.85;6.28;;;8.10;99.90;;;;;;5058539;28;20171;-82
2023/04/22 05:39:31;;;;;;;6.75;6.15;;;8.20;99.90;;;;;;5046204;28;20184;-81
2023/04/22 05:41:57;;;;;;;6.68;5.93;;;8.30;99.90;;;;;;5050280;28;20246;-80
2023/04/22 05:44:23;;;;;;;6.82;6.25;;;8.40;99.90;;;;;;5046805;28;20210;-81
2023/04/22 05:46:49;;;;;;;6.90;6.22;;;8.50;99.90;;;;;;5057422;28;20224;-81
2023/04/22 05:49:14;;;;;;;8.27;6.07;;;8.60;99.90;;;;;;5067254;28;20179;-81
2023/04/22 05:52:09;;;;;;;7.45;6.25;;;8.80;99.90;;;;;;5058060;28;20191;-80
2023/04/22 05:54:40;;;;;;;6.65;6.13;;;8.90;99.90;;;;;;5040631;28;20203;-81
2023/04/22 05:57:09;;;;;;;7.07;5.75;;;9.00;99.90;;;;;;5063760;28;20243;-81
2023/04/22 05:59:34;;;;;;;6.60;5.70;;;9.10;99.90;;;;;;5057152;28;20177;-82
2023/04/22 06:02:03;;;;;;;8.38;6.32;;;9.20;99.90;;;;;;5063066;28;20796;-81
2023/04/22 06:04:31;;;;;;;6.43;5.82;;;9.30;99.90;;;;;;5042844;28;20176;-81
2023/04/22 06:06:57;;;;;;;8.20;6.10;;;9.40;99.90;;;;;;5064960;28;20191;-82
2023/04/22 06:09:23;;;;;;;8.55;5.88;;;9.60;99.90;;;;;;5062464;28;20183;-82
2023/04/22 06:11:48;;;;;;;7.40;5.82;;;9.70;99.90;;;;;;5059867;28;20211;-81
2023/04/22 06:14:14;;;;;;;8.27;5.97;;;9.90;99.90;;;;;;5062864;28;20307;-82
2023/04/22 06:16:40;;;;;;;7.88;6.22;;;10.00;99.90;;;;;;5048743;28;20206;-82
2023/04/22 06:19:06;;;;;;;5.75;5.25;;;10.10;99.90;;;;;;5068516;28;20212;-81
2023/04/22 06:21:32;;;;;;;6.00;5.38;;;10.30;99.90;;;;;;5061174;28;20207;-81
2023/04/22 06:24:00;;;;;;;6.40;5.60;;;10.40;99.90;;;;;;5062631;28;20186;-82
2023/04/22 06:26:25;;;;;;;6.13;5.47;;;10.60;99.90;;;;;;5049451;28;20199;-82
2023/04/22 06:28:54;;;;;;;5.93;5.28;;;10.80;99.90;;;;;;5046734;28;20238;-82
2023/04/22 06:31:20;;;;;;;7.60;5.78;;;11.00;99.90;;;;;;5061255;28;20580;-82
2023/04/22 06:33:45;;;;;;;10.27;5.90;;;11.10;99.90;;;;;;5055792;28;20191;-82
2023/04/22 06:36:12;;;;;;;6.78;5.85;;;11.20;99.90;;;;;;5064331;28;20203;-82
2023/04/22 06:38:43;;;;;;;7.47;5.72;;;11.40;99.90;;;;;;5039650;28;20208;-81
2023/04/22 06:41:09;;;;;;;6.85;4.97;;;11.50;99.90;;;;;;5067010;28;20195;-82
2023/04/22 06:43:35;;;;;;;6.15;5.05;;;11.80;99.90;;;;;;5045819;28;20182;-82
2023/04/22 06:46:01;;;;;;;8.68;4.88;;;11.90;99.90;;;;;;5045102;28;20199;-82
2023/04/22 06:48:29;;;;;;;6.20;4.63;;;12.00;99.90;;;;;;5043290;28;20179;-80
2023/04/22 06:50:56;;;;;;;6.40;5.32;;;12.10;99.90;;;;;;5063510;28;20598;-82
2023/04/22 06:53:21;;;;;;;7.97;4.70;;;12.20;99.90;;;;;;5063114;28;20175;-81
2023/04/22 06:55:47;;;;;;;4.95;4.55;;;12.30;99.90;;;;;;5045525;28;20230;-82
2023/04/22 06:58:16;;;;;;;7.80;4.32;;;12.30;99.90;;;;;;5044559;28;20180;-82
2023/04/22 07:00:44;;;;;;;7.65;5.10;;;12.40;99.90;;;;;;5049793;28;20259;-81
2023/04/22 07:03:10;;;;;;;6.18;5.07;;;12.50;99.90;;;;;;5062257;28;20195;-81
2023/04/22 07:05:49;;;;;;;4.90;4.20;;;12.60;99.90;;;;;;5047500;28;20199;-82
2023/04/22 07:08:25;;;;;;;5.28;4.78;;;12.80;99.90;;;;;;5046306;28;20186;-81
2023/04/22 07:10:51;;;;;;;4.93;4.00;;;12.90;99.90;;;;;;5048602;28;20184;-81
2023/04/22 07:13:23;;;;;;;5.65;4.22;;;13.00;99.90;;;;;;5046915;28;20218;-82
2023/04/22 07:15:52;;;;;;;3.53;3.22;;;13.10;99.90;;;;;;5052345;28;20580;-82
2023/04/22 07:18:23;;;;;;;3.92;3.53;;;13.20;99.90;;;;;;5058663;28;20187;-81
2023/04/22 07:20:52;;;;;;;4.40;3.30;;;13.40;99.90;;;;;;5061821;28;20206;-81
2023/04/22 07:23:21;;;;;;;4.57;4.13;;;13.60;99.90;;;;;;5046675;28;20180;-82
2023/04/22 07:25:49;;;;;;;5.95;4.30;;;13.60;99.90;;;;;;5070991;28;20199;-82
2023/04/22 07:28:15;;;;;;;7.30;3.97;;;13.80;99.90;;;;;;5061189;28;20176;-81
2023/04/22 07:30:41;;;;;;;4.10;3.45;;;14.00;99.90;;;;;;5045433;28;20196;-82
2023/04/22 07:33:06;;;;;;;9.98;3.95;;;14.20;99.90;;;;;;5061307;28;20323;-84
2023/04/22 07:35:32;;;;;;;4.13;3.75;;;14.40;99.90;;;;;;5048342;28;20207;-82
2023/04/22 07:37:58;;;;;;;5.18;3.70;;;14.60;99.90;;;;;;5063707;28;20612;-82
2023/04/22 07:40:26;;;;;;;3.67;3.10;;;14.80;99.90;;;;;;5041465;28;20183;-82
2023/04/22 07:42:52;;;;;;;5.22;3.60;;;15.00;99.90;;;;;;5063410;28;20192;-82
2023/04/22 07:45:18;;;;;;;6.68;3.63;;;15.10;99.90;;;;;;5052034;28;20268;-82
2023/04/22 07:47:44;;;;;;;4.13;3.60;;;15.40;99.90;;;;;;5050655;28;20179;-81
2023/04/22 07:50:10;;;;;;;3.47;3.17;;;15.70;99.90;;;;;;5047628;28;20172;-81
2023/04/22 07:52:36;;;;;;;4.00;3.60;;;16.00;99.90;;;;;;5047860;28;20176;-81
2023/04/22 07:55:02;;;;;;;4.45;3.70;;;16.50;99.90;;;;;;5046483;28;20208;-82
2023/04/22 07:57:27;;;;;;;4.63;3.38;;;16.50;99.90;;;;;;5044473;28;20234;-81
2023/04/22 07:59:53;;;;;;;3.53;3.22;;;16.80;99.90;;;;;;5055997;28;20179;-82
2023/04/22 08:02:18;;;;;;;4.40;3.78;;;17.10;99.90;;;;;;5068533;28;20259;-82
2023/04/22 08:04:44;;;;;;;4.97;3.42;;;17.40;97.80;;;;;;5051078;28;20191;-82
2023/04/22 08:07:10;;;;;;;4.55;3.45;;;17.60;96.60;;;;;;5063374;28;20180;-82
2023/04/22 08:09:35;;;;;;;3.70;3.40;;;17.50;96.10;;;;;;5054200;28;20217;-82
2023/04/22 08:12:01;;;;;;;3.60;3.30;;;18.10;96.30;;;;;;5066452;28;20203;-82
2023/04/22 08:14:30;;;;;;;5.50;3.60;;;18.60;94.50;;;;;;5061086;28;20666;-82
2023/04/22 08:16:55;;;;;;;3.47;3.17;;;18.70;93.50;;;;;;5049303;28;20218;-82
2023/04/22 08:19:21;;;;;;;3.53;3.20;;;18.80;92.90;;;;;;5064869;28;20183;-82
2023/04/22 08:21:47;;;;;;;3.00;2.80;;;18.90;91.90;;;;;;5057962;28;20207;-83
2023/04/22 08:24:13;;;;;;;3.47;3.05;;;19.10;91.70;;;;;;5047164;28;20187;-82
2023/04/22 08:26:39;;;;;;;4.15;3.33;;;19.30;91.20;;;;;;5056446;28;20192;-82
2023/04/22 08:29:05;;;;;;;6.30;3.08;;;19.20;90.80;;;;;;5043603;28;20616;-82
2023/04/22 08:31:32;;;;;;;4.82;3.72;;;18.90;89.90;;;;;;5054559;28;20761;-83
2023/04/22 08:33:57;;;;;;;6.15;3.38;;;18.10;91.30;;;;;;5058156;28;20230;-82
2023/04/22 08:36:25;;;;;;;3.50;3.20;;;18.20;92.30;;;;;;5047236;28;20203;-82
2023/04/22 08:38:51;;;;;;;3.05;2.85;;;18.50;92.00;;;;;;5059639;28;20180;-82
2023/04/22 08:41:20;;;;;;;5.45;3.60;;;18.50;91.30;;;;;;5049598;28;20208;-83
2023/04/22 08:43:48;;;;;;;4.22;3.60;;;18.00;91.70;;;;;;5049922;28;20172;-83
2023/04/22 08:46:18;;;;;;;4.95;4.05;;;17.30;93.90;;;;;;5045347;28;20267;-82
2023/04/22 08:48:47;;;;;;;3.88;3.58;;;17.10;94.40;;;;;;5040908;28;20234;-81
2023/04/22 08:51:15;;;;;;;5.30;3.70;;;17.30;93.60;;;;;;5057645;28;20455;-82
2023/04/22 08:53:42;;;;;;;4.95;3.38;;;17.50;93.30;;;;;;5047265;28;20718;-83
2023/04/22 08:56:08;;;;;;;4.57;3.38;;;17.70;93.10;;;;;;5048306;28;20192;-82
2023/04/22 08:58:34;;;;;;;5.10;3.80;;;17.60;92.90;;;;;;5065548;28;20203;-82
2023/04/22 09:01:01;;;;;;;4.13;3.67;;;17.60;92.30;;;;;;5059627;28;20691;-82
2023/04/22 09:03:27;;;;;;;5.18;3.90;;;17.50;93.40;;;;;;5045121;28;20181;-82
2023/04/22 09:05:53;;;;;;;4.03;3.45;;;17.90;93.10;;;;;;5057028;28;20219;-82
2023/04/22 09:08:19;;;;;;;3.83;3.42;;;18.00;93.80;;;;;;5045266;28;20195;-82
2023/04/22 09:10:45;;;;;;;3.70;3.40;;;18.30;93.50;;;;;;5043544;28;20187;-82
2023/04/22 09:13:13;;;;;;;4.03;3.28;;;18.60;93.10;;;;;;5051113;28;20163;-82
2023/04/22 09:15:39;;;;;;;3.78;3.47;;;19.50;92.20;;;;;;5043972;28;20313;-82
2023/04/22 09:18:04;;;;;;;3.50;3.00;;;20.00;91.00;;;;;;5057740;28;20683;-82
2023/04/22 09:20:30;;;;;;;3.00;2.80;;;21.90;87.60;;;;;;5034874;28;20184;-81
2023/04/22 09:23:00;;;;;;;3.38;3.17;;;24.30;80.00;;;;;;5040246;28;20208;-82
2023/04/22 09:25:26;;;;;;;5.18;3.53;;;27.00;72.70;;;;;;5053875;28;20207;-82
2023/04/22 09:27:57;;;;;;;5.85;3.08;;;28.70;62.10;;;;;;5049989;28;20185;-82
2023/04/22 09:30:31;;;;;;;3.72;3.20;;;29.70;59.40;;;;;;5035272;28;20232;-82
2023/04/22 09:33:02;;;;;;;3.15;2.80;;;29.70;54.30;;;;;;5037313;28;20263;-83
2023/04/22 09:35:38;;;;;;;3.30;2.97;;;28.10;55.40;;;;;;5039279;28;20202;-80
2023/04/22 09:38:06;;;;;;;3.45;2.63;;;27.00;58.20;;;;;;5051341;28;20267;-80
2023/04/22 09:40:33;;;;;;;3.47;2.70;;;27.20;57.60;;;;;;5034928;28;20246;-80
2023/04/22 09:43:02;;;;;;;2.90;2.70;;;28.20;57.00;;;;;;5050295;28;20654;-80
2023/04/22 09:45:33;;;;;;;3.25;2.90;;;27.40;55.50;;;;;;5049893;28;20224;-80
2023/04/22 09:48:09;;;;;;;3.80;3.22;;;27.50;56.70;;;;;;5035975;28;20208;-81
2023/04/22 09:50:37;;;;;;;3.03;2.78;;;27.50;57.60;;;;;;5043366;28;20180;-81
2023/04/22 09:53:08;;;;;;;3.08;2.88;;;28.30;55.60;;;;;;5052219;28;20219;-81
2023/04/22 09:55:36;;;;;;;3.45;3.17;;;28.20;54.40;;;;;;5027199;28;20224;-81
2023/04/22 09:58:08;;;;;;;4.13;3.00;;;29.90;54.20;;;;;;5041687;28;20654;-80
2023/04/22 10:00:38;;;;;;;3.28;2.97;;;31.50;50.80;;;;;;5040886;28;20670;-81
2023/04/22 10:03:05;;;;;;;4.68;3.13;;;32.10;50.10;;;;;;5038257;28;20209;-81
2023/04/22 10:05:31;;;;;;;3.55;3.25;;;29.70;51.10;;;;;;5055418;28;20203;-80
2023/04/22 10:07:56;;;;;;;3.95;2.83;;;27.60;55.10;;;;;;5049834;28;20179;-80
2023/04/22 10:10:23;;;;;;;3.10;2.90;;;28.70;54.90;;;;;;5042844;28;20269;-80
2023/04/22 10:12:50;;;;;;;3.35;3.10;;;27.00;56.20;;;;;;5039201;28;20187;-81
2023/04/22 10:15:16;;;;;;;3.40;3.10;;;27.40;56.90;;;;;;5036883;28;20203;-80
2023/04/22 10:17:43;;;;;;;5.93;3.42;;;28.90;56.90;;;;;;5055028;28;20191;-81
2023/04/22 10:20:12;;;;;;;3.70;2.78;;;30.70;52.80;;;;;;5051432;28;20199;-80
2023/04/22 10:22:40;;;;;;;4.78;3.33;;;31.50;51.50;;;;;;5039347;28;20200;-80
2023/04/22 10:25:11;;;;;;;3.08;2.85;;;31.10;50.40;;;;;;5043623;28;20294;-80
2023/04/22 10:27:38;;;;;;;5.00;3.05;;;32.30;49.30;;;;;;5042596;28;20290;-80
2023/04/22 10:30:04;;;;;;;4.05;2.97;;;32.30;49.70;;;;;;5034022;28;20299;-80
2023/04/22 10:32:29;;;;;;;3.35;3.05;;;33.10;48.70;;;;;;5049252;28;20233;-80
2023/04/22 10:35:11;;;;;;;4.70;2.58;;;34.80;48.20;;;;;;5037665;28;20234;-80
2023/04/22 10:37:39;;;;;;;2.80;2.53;;;36.90;44.50;;;;;;5035980;28;20175;-80
2023/04/22 10:40:10;;;;;;;4.43;2.80;;;35.70;44.90;;;;;;5041419;28;20190;-80
2023/04/22 10:42:39;;;;;;;3.08;2.55;;;37.40;41.50;;;;;;5042453;28;20572;-78
2023/04/22 10:45:06;;;;;;;2.42;2.30;;;37.40;41.90;;;;;;5036284;28;20206;-78
2023/04/22 10:47:36;;;;;;;2.92;2.30;;;37.00;41.00;;;;;;5053383;28;20262;-77
2023/04/22 10:50:13;;;;;;;2.55;2.10;;;38.20;40.30;;;;;;5039184;28;20192;-78
2023/04/22 10:52:40;;;;;;;2.53;2.17;;;39.10;39.00;;;;;;5059844;28;20187;-78
2023/04/22 10:55:06;;;;;;;1.85;1.75;;;39.70;37.10;;;;;;5034340;28;20206;-80
2023/04/22 10:57:52;;;;;;;2.33;2.10;;;39.10;38.10;;;;;;5049183;28;20725;-78
2023/04/22 11:00:18;;;;;;;3.08;2.88;;;40.20;36.80;;;;;;5033465;28;20214;-78
2023/04/22 11:02:45;;;;;;;2.70;2.42;;;38.70;37.80;;;;;;5049450;28;20253;-81
2023/04/22 11:05:21;;;;;;;2.17;1.98;;;39.40;37.50;;;;;;5046327;28;20201;-80
2023/04/22 11:07:55;;;;;;;1.92;1.83;;;41.30;36.60;;;;;;5045355;28;20205;-80
2023/04/22 11:10:31;;;;;;;2.35;2.08;;;38.60;36.60;;;;;;5048989;28;20190;-78
2023/04/22 11:12:57;;;;;;;1.88;1.77;;;37.90;38.00;;;;;;5035272;28;20690;-78
2023/04/22 11:15:23;;;;;;;1.85;1.75;;;36.20;38.80;;;;;;5054682;28;20231;-77
2023/04/22 11:17:55;;;;;;;2.80;2.10;;;37.40;37.80;;;;;;5051424;28;20280;-78
2023/04/22 11:20:21;;;;;;;1.80;1.70;;;36.00;39.70;;;;;;5024007;28;20260;-81
2023/04/22 11:22:50;;;;;;;2.03;1.83;;;38.50;38.40;;;;;;5045789;28;20210;-81
2023/04/22 11:25:15;;;;;;;2.10;1.90;;;35.60;39.00;;;;;;5041135;28;20199;-81
2023/04/22 11:27:42;;;;;;;3.38;1.88;;;37.60;38.10;;;;;;5058957;28;20186;-80
2023/04/22 11:30:08;;;;;;;4.55;2.22;;;35.60;37.90;;;;;;5047438;28;20566;-80
2023/04/22 11:32:35;;;;;;;2.30;2.10;;;34.70;40.50;;;;;;5052004;28;20234;-80
2023/04/22 11:35:09;;;;;;;2.42;2.22;;;36.70;39.40;;;;;;5042208;28;20195;-80
2023/04/22 11:37:47;;;;;;;2.63;1.70;;;37.60;38.60;;;;;;5037724;28;20228;-78
2023/04/22 11:40:20;;;;;;;1.95;1.70;;;35.70;38.30;;;;;;5049410;28;20243;-81
2023/04/22 11:42:49;;;;;;;1.75;1.63;;;34.00;40.60;;;;;;5038661;28;20822;-80
2023/04/22 11:45:16;;;;;;;2.13;1.65;;;32.80;41.70;;;;;;5058144;28;20191;-81
2023/04/22 11:47:42;;;;;;;1.63;1.40;;;33.00;41.50;;;;;;5043374;28;20188;-80
2023/04/22 11:50:13;;;;;;;2.45;1.80;;;35.20;39.50;;;;;;5041697;28;20179;-78
2023/04/22 11:53:02;;;;;;;1.60;1.50;;;36.30;38.10;;;;;;5043657;28;20643;-78
2023/04/22 11:55:29;;;;;;;1.70;1.60;;;35.50;39.60;;;;;;5034096;28;20210;-78
2023/04/22 11:58:09;;;;;;;1.80;1.70;;;36.80;38.70;;;;;;5055629;28;20175;-78
2023/04/22 12:00:43;;;;;;;1.77;1.67;;;38.60;37.00;;;;;;5031857;28;20229;-78
2023/04/22 12:03:21;;;;;;;1.58;1.50;;;37.80;36.90;;;;;;5040078;28;20183;-79
2023/04/22 12:06:03;;;;;;;1.40;1.35;;;38.80;36.60;;;;;;5048120;28;20290;-78
2023/04/22 12:08:43;;;;;;;2.78;1.63;;;39.60;34.70;;;;;;5034968;28;20179;-78
2023/04/22 12:11:10;;;;;;;1.42;1.40;;;37.60;36.60;;;;;;5041367;28;20183;-78
2023/04/22 12:13:35;;;;;;;1.67;1.55;;;38.20;36.50;;;;;;5041372;28;20194;-78
2023/04/22 12:16:16;;;;;;;2.25;1.40;;;38.30;35.70;;;;;;5038238;28;20403;-78
2023/04/22 12:18:48;;;;;;;1.55;1.55;;;37.20;37.50;;;;;;5055652;28;20200;-78
2023/04/22 12:21:23;;;;;;;1.60;1.48;;;35.90;37.90;;;;;;5055962;28;20223;-78
2023/04/22 12:23:54;;;;;;;2.00;1.90;;;35.90;37.50;;;;;;5057469;28;20205;-78
2023/04/22 12:26:23;;;;;;;1.65;1.55;;;34.20;39.00;;;;;;5040891;28;20199;-78
2023/04/22 12:28:50;;;;;;;1.80;1.70;;;32.60;40.90;;;;;;5045163;28;20175;-78
2023/04/22 12:31:16;;;;;;;1.92;1.67;;;32.20;41.30;;;;;;5047564;28;20179;-78
2023/04/22 12:33:43;;;;;;;1.80;1.70;;;33.30;39.70;;;;;;5055374;28;20647;-78
2023/04/22 12:36:09;;;;;;;1.52;1.50;;;32.20;41.80;;;;;;5057091;28;20674;-78
2023/04/22 12:38:35;;;;;;;1.60;1.50;;;32.50;42.80;;;;;;5037478;28;20214;-78
2023/04/22 12:41:02;;;;;;;2.53;1.70;;;33.10;41.20;;;;;;5057766;28;20204;-77
2023/04/22 12:43:27;;;;;;;2.10;1.83;;;34.00;40.30;;;;;;5044567;28;20251;-78
2023/04/22 12:45:53;;;;;;;1.80;1.70;;;33.60;41.20;;;;;;5045438;28;20215;-78
2023/04/22 12:48:20;;;;;;;1.90;1.50;;;31.30;42.10;;;;;;5045138;28;20183;-77
2023/04/22 12:50:46;;;;;;;1.63;1.60;;;32.70;41.00;;;;;;5057201;28;20175;-79